sensor_id;sensor_type;location;lat;lon;timestamp;pressure;altitude;pressure_sealevel;temperature;humidity
65756;BME280;52489;47.502;18.940;2022-11-15T00:00:37;98553.34;;;6.10;79.67
65756;BME280;52489;47.502;18.940;2022-11-15T00:01:40;98555.47;;;6.18;79.67
65756;BME280;52489;47.502;18.940;2022-11-15T00:02:43;98554.91;;;6.11;79.50
65756;BME280;52489;47.502;18.940;2022-11-15T00:03:46;98559.31;;;6.05;79.37
65756;BME280;52489;47.502;18.940;2022-11-15T00:04:49;98565.50;;;5.99;80.04
65756;BME280;52489;47.502;18.940;2022-11-15T00:05:51;98566.69;;;5.81;80.82
65756;BME280;52489;47.502;18.940;2022-11-15T00:06:54;98572.00;;;5.97;80.32
65756;BME280;52489;47.502;18.940;2022-11-15T00:07:57;98573.09;;;6.06;79.88
65756;BME280;52489;47.502;18.940;2022-11-15T00:09:01;98568.19;;;6.14;79.48
65756;BME280;52489;47.502;18.940;2022-11-15T00:10:05;98568.16;;;6.04;79.98
65756;BME280;52489;47.502;18.940;2022-11-15T00:11:10;98576.72;;;6.05;79.53
65756;BME280;52489;47.502;18.940;2022-11-15T00:12:14;98569.94;;;5.99;79.97
65756;BME280;52489;47.502;18.940;2022-11-15T00:13:17;98567.44;;;6.19;79.50
65756;BME280;52489;47.502;18.940;2022-11-15T00:14:20;98566.00;;;5.96;79.35
65756;BME280;52489;47.502;18.940;2022-11-15T00:15:23;98567.34;;;5.99;79.72
65756;BME280;52489;47.502;18.940;2022-11-15T00:16:26;98572.84;;;6.07;79.03
65756;BME280;52489;47.502;18.940;2022-11-15T00:17:29;98572.28;;;6.00;79.02
65756;BME280;52489;47.502;18.940;2022-11-15T00:18:32;98576.25;;;6.13;79.46
65756;BME280;52489;47.502;18.940;2022-11-15T00:19:35;98571.84;;;6.13;79.43
65756;BME280;52489;47.502;18.940;2022-11-15T00:20:38;98562.44;;;6.07;79.23
65756;BME280;52489;47.502;18.940;2022-11-15T00:21:41;98563.50;;;6.11;79.26
65756;BME280;52489;47.502;18.940;2022-11-15T00:22:44;98558.53;;;6.05;79.00
65756;BME280;52489;47.502;18.940;2022-11-15T00:23:47;98568.22;;;6.20;79.41
65756;BME280;52489;47.502;18.940;2022-11-15T00:24:50;98557.03;;;6.19;79.51
65756;BME280;52489;47.502;18.940;2022-11-15T00:25:57;98571.50;;;6.00;79.92
65756;BME280;52489;47.502;18.940;2022-11-15T00:27:00;98562.03;;;5.88;80.38
65756;BME280;52489;47.502;18.940;2022-11-15T00:28:05;98558.41;;;5.89;80.91
65756;BME280;52489;47.502;18.940;2022-11-15T00:29:08;98554.41;;;5.77;81.24
65756;BME280;52489;47.502;18.940;2022-11-15T00:30:11;98563.62;;;5.89;81.26
65756;BME280;52489;47.502;18.940;2022-11-15T00:31:32;98557.72;;;5.99;80.69
65756;BME280;52489;47.502;18.940;2022-11-15T00:32:35;98551.41;;;5.90;80.22
65756;BME280;52489;47.502;18.940;2022-11-15T00:33:38;98552.53;;;5.67;81.81
65756;BME280;52489;47.502;18.940;2022-11-15T00:34:42;98553.19;;;5.84;80.92
65756;BME280;52489;47.502;18.940;2022-11-15T00:35:45;98548.84;;;5.95;80.04
65756;BME280;52489;47.502;18.940;2022-11-15T00:36:49;98551.78;;;6.04;80.35
65756;BME280;52489;47.502;18.940;2022-11-15T00:37:52;98544.22;;;6.02;80.23
65756;BME280;52489;47.502;18.940;2022-11-15T00:38:56;98542.97;;;6.15;80.40
65756;BME280;52489;47.502;18.940;2022-11-15T00:39:59;98547.41;;;6.20;80.25
65756;BME280;52489;47.502;18.940;2022-11-15T00:41:04;98549.78;;;6.21;80.39
65756;BME280;52489;47.502;18.940;2022-11-15T00:42:11;98539.91;;;6.28;79.96
65756;BME280;52489;47.502;18.940;2022-11-15T00:43:15;98547.44;;;6.30;79.63
65756;BME280;52489;47.502;18.940;2022-11-15T00:44:18;98536.31;;;6.40;79.65
65756;BME280;52489;47.502;18.940;2022-11-15T00:45:22;98541.75;;;6.38;79.64
65756;BME280;52489;47.502;18.940;2022-11-15T00:46:26;98541.75;;;6.38;79.96
65756;BME280;52489;47.502;18.940;2022-11-15T00:47:29;98543.09;;;6.46;80.25
65756;BME280;52489;47.502;18.940;2022-11-15T00:48:32;98544.38;;;6.38;80.91
65756;BME280;52489;47.502;18.940;2022-11-15T00:49:35;98542.56;;;6.44;80.52
65756;BME280;52489;47.502;18.940;2022-11-15T00:50:39;98545.34;;;6.27;81.00
65756;BME280;52489;47.502;18.940;2022-11-15T00:51:42;98546.34;;;6.10;82.18
65756;BME280;52489;47.502;18.940;2022-11-15T00:52:46;98561.13;;;6.05;82.56
65756;BME280;52489;47.502;18.940;2022-11-15T00:53:49;98548.62;;;6.02;82.96
65756;BME280;52489;47.502;18.940;2022-11-15T00:54:51;98558.50;;;6.00;82.56
65756;BME280;52489;47.502;18.940;2022-11-15T00:55:55;98550.50;;;6.11;82.10
65756;BME280;52489;47.502;18.940;2022-11-15T00:56:57;98548.16;;;6.15;81.60
65756;BME280;52489;47.502;18.940;2022-11-15T00:58:00;98541.72;;;6.23;81.48
65756;BME280;52489;47.502;18.940;2022-11-15T00:59:03;98542.75;;;6.27;81.53
65756;BME280;52489;47.502;18.940;2022-11-15T01:00:07;98545.13;;;6.28;81.79
65756;BME280;52489;47.502;18.940;2022-11-15T01:01:13;98548.25;;;6.30;81.69
65756;BME280;52489;47.502;18.940;2022-11-15T01:02:16;98546.88;;;6.18;81.53
65756;BME280;52489;47.502;18.940;2022-11-15T01:03:19;98548.22;;;6.25;81.23
65756;BME280;52489;47.502;18.940;2022-11-15T01:04:21;98540.91;;;6.17;81.14
65756;BME280;52489;47.502;18.940;2022-11-15T01:05:24;98542.44;;;6.13;80.83
65756;BME280;52489;47.502;18.940;2022-11-15T01:06:40;98549.25;;;6.19;80.98
65756;BME280;52489;47.502;18.940;2022-11-15T01:07:43;98539.63;;;6.25;81.08
65756;BME280;52489;47.502;18.940;2022-11-15T01:08:45;98535.47;;;6.29;81.51
65756;BME280;52489;47.502;18.940;2022-11-15T01:09:48;98535.22;;;6.25;81.61
65756;BME280;52489;47.502;18.940;2022-11-15T01:10:51;98534.19;;;6.31;81.61
65756;BME280;52489;47.502;18.940;2022-11-15T01:11:54;98526.94;;;6.44;81.21
65756;BME280;52489;47.502;18.940;2022-11-15T01:12:57;98527.22;;;6.42;81.63
65756;BME280;52489;47.502;18.940;2022-11-15T01:13:59;98528.81;;;6.48;81.34
65756;BME280;52489;47.502;18.940;2022-11-15T01:15:03;98521.28;;;6.57;81.48
65756;BME280;52489;47.502;18.940;2022-11-15T01:16:12;98529.84;;;6.52;82.25
65756;BME280;52489;47.502;18.940;2022-11-15T01:17:15;98529.09;;;6.62;82.16
65756;BME280;52489;47.502;18.940;2022-11-15T01:18:20;98529.37;;;6.66;82.18
65756;BME280;52489;47.502;18.940;2022-11-15T01:19:23;98523.41;;;6.75;81.50
65756;BME280;52489;47.502;18.940;2022-11-15T01:20:26;98525.41;;;6.53;81.11
65756;BME280;52489;47.502;18.940;2022-11-15T01:21:29;98511.38;;;6.54;81.47
65756;BME280;52489;47.502;18.940;2022-11-15T01:22:31;98514.25;;;6.57;81.18
65756;BME280;52489;47.502;18.940;2022-11-15T01:23:34;98509.81;;;6.53;81.43
65756;BME280;52489;47.502;18.940;2022-11-15T01:24:37;98510.62;;;6.64;82.27
65756;BME280;52489;47.502;18.940;2022-11-15T01:25:39;98513.88;;;6.23;84.05
65756;BME280;52489;47.502;18.940;2022-11-15T01:26:42;98520.44;;;6.41;83.52
65756;BME280;52489;47.502;18.940;2022-11-15T01:27:45;98505.38;;;6.53;83.16
65756;BME280;52489;47.502;18.940;2022-11-15T01:28:50;98509.22;;;6.30;83.88
65756;BME280;52489;47.502;18.940;2022-11-15T01:29:53;98504.84;;;6.46;83.52
65756;BME280;52489;47.502;18.940;2022-11-15T01:31:01;98507.94;;;6.38;81.92
65756;BME280;52489;47.502;18.940;2022-11-15T01:32:04;98507.97;;;6.53;81.41
65756;BME280;52489;47.502;18.940;2022-11-15T01:33:06;98498.09;;;6.55;81.22
65756;BME280;52489;47.502;18.940;2022-11-15T01:34:09;98502.78;;;6.53;81.55
65756;BME280;52489;47.502;18.940;2022-11-15T01:35:12;98500.97;;;6.64;82.45
65756;BME280;52489;47.502;18.940;2022-11-15T01:36:17;98508.28;;;6.72;82.30
65756;BME280;52489;47.502;18.940;2022-11-15T01:37:21;98497.34;;;6.70;81.85
65756;BME280;52489;47.502;18.940;2022-11-15T01:38:23;98497.03;;;6.56;82.38
65756;BME280;52489;47.502;18.940;2022-11-15T01:39:26;98502.00;;;6.53;82.67
65756;BME280;52489;47.502;18.940;2022-11-15T01:40:29;98501.50;;;6.66;82.39
65756;BME280;52489;47.502;18.940;2022-11-15T01:41:33;98507.25;;;6.78;81.54
65756;BME280;52489;47.502;18.940;2022-11-15T01:42:35;98503.09;;;6.82;81.62
65756;BME280;52489;47.502;18.940;2022-11-15T01:43:39;98510.91;;;6.88;81.59
65756;BME280;52489;47.502;18.940;2022-11-15T01:44:52;98498.91;;;6.76;81.59
65756;BME280;52489;47.502;18.940;2022-11-15T01:46:33;98498.16;;;6.96;81.76
65756;BME280;52489;47.502;18.940;2022-11-15T01:47:43;98503.38;;;7.06;81.10
65756;BME280;52489;47.502;18.940;2022-11-15T01:48:51;98500.50;;;7.03;81.17
65756;BME280;52489;47.502;18.940;2022-11-15T01:51:01;98502.09;;;7.14;80.75
65756;BME280;52489;47.502;18.940;2022-11-15T01:52:09;98501.56;;;7.07;79.40
65756;BME280;52489;47.502;18.940;2022-11-15T01:53:14;98493.22;;;7.10;78.83
65756;BME280;52489;47.502;18.940;2022-11-15T01:54:20;98490.34;;;6.96;79.45
65756;BME280;52489;47.502;18.940;2022-11-15T01:55:26;98490.38;;;7.01;79.82
65756;BME280;52489;47.502;18.940;2022-11-15T01:56:32;98494.28;;;7.04;81.34
65756;BME280;52489;47.502;18.940;2022-11-15T01:57:35;98495.03;;;6.94;81.27
65756;BME280;52489;47.502;18.940;2022-11-15T01:58:40;98503.62;;;6.84;81.26
65756;BME280;52489;47.502;18.940;2022-11-15T01:59:44;98491.13;;;6.87;82.76
65756;BME280;52489;47.502;18.940;2022-11-15T02:00:48;98490.88;;;6.98;81.59
65756;BME280;52489;47.502;18.940;2022-11-15T02:01:52;98490.34;;;6.96;80.71
65756;BME280;52489;47.502;18.940;2022-11-15T02:02:55;98492.44;;;7.04;80.64
65756;BME280;52489;47.502;18.940;2022-11-15T02:04:06;98489.56;;;7.06;80.26
65756;BME280;52489;47.502;18.940;2022-11-15T02:05:11;98492.44;;;7.04;81.28
65756;BME280;52489;47.502;18.940;2022-11-15T02:06:14;98483.06;;;7.03;82.40
65756;BME280;52489;47.502;18.940;2022-11-15T02:07:19;98488.78;;;7.00;83.16
65756;BME280;52489;47.502;18.940;2022-11-15T02:08:27;98483.84;;;7.14;81.80
65756;BME280;52489;47.502;18.940;2022-11-15T02:09:30;98485.66;;;7.03;81.44
65756;BME280;52489;47.502;18.940;2022-11-15T02:10:32;98491.66;;;7.19;80.82
65756;BME280;52489;47.502;18.940;2022-11-15T02:11:35;98486.19;;;7.11;80.97
65756;BME280;52489;47.502;18.940;2022-11-15T02:12:39;98492.94;;;6.91;82.39
65756;BME280;52489;47.502;18.940;2022-11-15T02:13:43;98488.53;;;7.07;81.84
65756;BME280;52489;47.502;18.940;2022-11-15T02:14:50;98476.03;;;6.99;81.28
65756;BME280;52489;47.502;18.940;2022-11-15T02:17:45;98479.16;;;7.16;80.12
65756;BME280;52489;47.502;18.940;2022-11-15T02:25:03;98469.50;;;7.12;79.86
65756;BME280;52489;47.502;18.940;2022-11-15T02:29:14;98467.66;;;7.38;79.93
65756;BME280;52489;47.502;18.940;2022-11-15T02:33:33;98464.56;;;6.95;83.61
65756;BME280;52489;47.502;18.940;2022-11-15T02:34:59;98461.44;;;6.88;83.33
65756;BME280;52489;47.502;18.940;2022-11-15T02:40:02;98465.62;;;7.04;82.24
65756;BME280;52489;47.502;18.940;2022-11-15T02:41:13;98466.12;;;7.06;82.42
65756;BME280;52489;47.502;18.940;2022-11-15T02:42:35;98466.12;;;7.06;82.34
65756;BME280;52489;47.502;18.940;2022-11-15T02:45:34;98458.56;;;7.15;80.30
65756;BME280;52489;47.502;18.940;2022-11-15T02:46:49;98464.03;;;7.28;81.46
65756;BME280;52489;47.502;18.940;2022-11-15T02:48:16;98456.75;;;7.15;81.28
65756;BME280;52489;47.502;18.940;2022-11-15T02:49:21;98460.38;;;7.35;80.48
65756;BME280;52489;47.502;18.940;2022-11-15T02:50:28;98457.00;;;7.24;80.07
65756;BME280;52489;47.502;18.940;2022-11-15T02:51:32;98459.63;;;7.19;80.24
65756;BME280;52489;47.502;18.940;2022-11-15T02:52:35;98459.34;;;7.15;80.91
65756;BME280;52489;47.502;18.940;2022-11-15T02:53:38;98462.72;;;7.26;80.40
65756;BME280;52489;47.502;18.940;2022-11-15T02:54:41;98458.81;;;7.34;79.48
65756;BME280;52489;47.502;18.940;2022-11-15T02:55:47;98458.28;;;7.26;79.98
65756;BME280;52489;47.502;18.940;2022-11-15T02:56:57;98462.19;;;7.24;80.55
65756;BME280;52489;47.502;18.940;2022-11-15T03:04:02;98460.63;;;7.33;81.33
65756;BME280;52489;47.502;18.940;2022-11-15T03:06:49;98461.69;;;7.06;82.33
65756;BME280;52489;47.502;18.940;2022-11-15T03:09:23;98453.59;;;7.39;80.46
65756;BME280;52489;47.502;18.940;2022-11-15T03:11:49;98457.00;;;7.24;80.76
65756;BME280;52489;47.502;18.940;2022-11-15T03:12:57;98451.78;;;7.24;81.40
65756;BME280;52489;47.502;18.940;2022-11-15T03:15:38;98455.41;;;7.33;81.32
65756;BME280;52489;47.502;18.940;2022-11-15T03:17:07;98452.03;;;7.38;81.29
65756;BME280;52489;47.502;18.940;2022-11-15T03:18:28;98445.53;;;7.20;81.81
65756;BME280;52489;47.502;18.940;2022-11-15T03:19:44;98442.44;;;7.02;82.28
65756;BME280;52489;47.502;18.940;2022-11-15T03:20:49;98449.44;;;7.12;82.12
65756;BME280;52489;47.502;18.940;2022-11-15T03:21:54;98448.41;;;7.13;82.23
65756;BME280;52489;47.502;18.940;2022-11-15T03:23:04;98446.84;;;7.12;83.19
65756;BME280;52489;47.502;18.940;2022-11-15T03:24:08;98446.56;;;7.24;82.89
65756;BME280;52489;47.502;18.940;2022-11-15T03:25:16;98444.47;;;7.36;82.29
65756;BME280;52489;47.502;18.940;2022-11-15T03:26:21;98436.41;;;7.38;81.87
65756;BME280;52489;47.502;18.940;2022-11-15T03:27:31;98442.12;;;7.40;81.88
65756;BME280;52489;47.502;18.940;2022-11-15T03:28:40;98441.09;;;7.41;82.41
65756;BME280;52489;47.502;18.940;2022-11-15T03:29:47;98433.28;;;7.20;83.29
65756;BME280;52489;47.502;18.940;2022-11-15T03:30:53;98429.63;;;7.26;82.89
65756;BME280;52489;47.502;18.940;2022-11-15T03:32:01;98428.84;;;7.31;82.35
65756;BME280;52489;47.502;18.940;2022-11-15T03:33:07;98425.44;;;7.46;81.98
65756;BME280;52489;47.502;18.940;2022-11-15T03:35:29;98430.66;;;7.41;83.10
65756;BME280;52489;47.502;18.940;2022-11-15T03:36:34;98427.53;;;7.44;83.11
65756;BME280;52489;47.502;18.940;2022-11-15T03:37:47;98427.03;;;7.32;83.29
65756;BME280;52489;47.502;18.940;2022-11-15T03:38:59;98428.09;;;7.20;84.18
65756;BME280;52489;47.502;18.940;2022-11-15T03:40:05;98428.56;;;7.27;83.96
65756;BME280;52489;47.502;18.940;2022-11-15T03:41:17;98422.34;;;7.34;83.38
65756;BME280;52489;47.502;18.940;2022-11-15T03:45:36;98416.06;;;7.35;82.15
65756;BME280;52489;47.502;18.940;2022-11-15T03:46:56;98424.16;;;7.33;82.73
65756;BME280;52489;47.502;18.940;2022-11-15T03:48:11;98419.69;;;7.44;82.63
65756;BME280;52489;47.502;18.940;2022-11-15T03:49:21;98409.31;;;7.34;82.16
65756;BME280;52489;47.502;18.940;2022-11-15T03:50:25;98411.09;;;7.43;82.13
65756;BME280;52489;47.502;18.940;2022-11-15T03:51:29;98420.47;;;7.39;82.51
65756;BME280;52489;47.502;18.940;2022-11-15T03:52:33;98412.12;;;7.42;82.69
65756;BME280;52489;47.502;18.940;2022-11-15T03:53:36;98405.66;;;7.24;82.89
65756;BME280;52489;47.502;18.940;2022-11-15T03:54:56;98414.53;;;7.23;83.83
65756;BME280;52489;47.502;18.940;2022-11-15T03:55:58;98402.28;;;7.29;83.27
65756;BME280;52489;47.502;18.940;2022-11-15T03:57:01;98405.41;;;7.31;82.60
65756;BME280;52489;47.502;18.940;2022-11-15T03:58:04;98402.75;;;7.41;81.87
65756;BME280;52489;47.502;18.940;2022-11-15T03:59:07;98400.44;;;7.29;81.47
65756;BME280;52489;47.502;18.940;2022-11-15T04:00:10;98401.25;;;7.20;81.65
65756;BME280;52489;47.502;18.940;2022-11-15T04:01:13;98394.75;;;7.12;81.35
65756;BME280;52489;47.502;18.940;2022-11-15T04:02:16;98385.09;;;7.18;80.13
65756;BME280;52489;47.502;18.940;2022-11-15T04:03:19;98383.78;;;7.15;80.89
65756;BME280;52489;47.502;18.940;2022-11-15T04:04:22;98387.97;;;7.11;79.44
65756;BME280;52489;47.502;18.940;2022-11-15T04:05:25;98394.75;;;7.12;79.14
65756;BME280;52489;47.502;18.940;2022-11-15T04:06:27;98400.47;;;7.09;80.33
65756;BME280;52489;47.502;18.940;2022-11-15T04:07:30;98394.97;;;7.26;76.42
65756;BME280;52489;47.502;18.940;2022-11-15T04:08:33;98405.94;;;7.28;75.97
65756;BME280;52489;47.502;18.940;2022-11-15T04:09:36;98405.66;;;7.29;76.22
65756;BME280;52489;47.502;18.940;2022-11-15T04:10:59;98408.53;;;7.18;77.12
65756;BME280;52489;47.502;18.940;2022-11-15T04:12:03;98396.28;;;7.18;77.59
65756;BME280;52489;47.502;18.940;2022-11-15T04:13:06;98396.31;;;7.13;77.79
65756;BME280;52489;47.502;18.940;2022-11-15T04:14:09;98385.09;;;7.18;78.20
65756;BME280;52489;47.502;18.940;2022-11-15T04:15:14;98384.53;;;7.36;78.95
65756;BME280;52489;47.502;18.940;2022-11-15T04:16:17;98385.06;;;7.33;78.87
65756;BME280;52489;47.502;18.940;2022-11-15T04:17:20;98383.50;;;7.37;76.88
65756;BME280;52489;47.502;18.940;2022-11-15T04:18:23;98379.84;;;7.38;75.02
65756;BME280;52489;47.502;18.940;2022-11-15T04:19:27;98383.75;;;7.36;75.25
65756;BME280;52489;47.502;18.940;2022-11-15T04:20:48;98389.00;;;7.31;75.05
65756;BME280;52489;47.502;18.940;2022-11-15T04:22:09;98392.56;;;7.50;74.50
65756;BME280;52489;47.502;18.940;2022-11-15T04:23:30;98392.63;;;7.40;74.16
65756;BME280;52489;47.502;18.940;2022-11-15T04:24:51;98401.22;;;7.30;74.47
65756;BME280;52489;47.502;18.940;2022-11-15T04:25:55;98397.62;;;7.05;76.22
65756;BME280;52489;47.502;18.940;2022-11-15T04:26:59;98392.37;;;7.16;76.49
65756;BME280;52489;47.502;18.940;2022-11-15T04:28:02;98398.91;;;6.98;79.29
65756;BME280;52489;47.502;18.940;2022-11-15T04:29:05;98397.88;;;7.19;78.57
65756;BME280;52489;47.502;18.940;2022-11-15T04:30:27;98407.25;;;6.95;79.76
65756;BME280;52489;47.502;18.940;2022-11-15T04:31:29;98406.75;;;6.82;79.81
65756;BME280;52489;47.502;18.940;2022-11-15T04:32:32;98408.31;;;6.73;79.79
65756;BME280;52489;47.502;18.940;2022-11-15T04:33:35;98408.03;;;6.65;79.90
65756;BME280;52489;47.502;18.940;2022-11-15T04:34:37;98404.41;;;6.71;79.77
65756;BME280;52489;47.502;18.940;2022-11-15T04:35:42;98402.81;;;7.00;79.37
65756;BME280;52489;47.502;18.940;2022-11-15T04:36:45;98409.84;;;6.95;78.90
65756;BME280;52489;47.502;18.940;2022-11-15T04:38:08;98406.75;;;6.93;78.83
65756;BME280;52489;47.502;18.940;2022-11-15T04:39:11;98401.53;;;6.93;79.40
65756;BME280;52489;47.502;18.940;2022-11-15T04:40:14;98404.66;;;7.05;79.29
65756;BME280;52489;47.502;18.940;2022-11-15T04:41:17;98397.38;;;6.97;79.26
65756;BME280;52489;47.502;18.940;2022-11-15T04:42:19;98395.28;;;6.94;79.75
65756;BME280;52489;47.502;18.940;2022-11-15T04:43:22;98399.19;;;6.86;80.67
65756;BME280;52489;47.502;18.940;2022-11-15T04:44:25;98385.94;;;6.57;82.57
65756;BME280;52489;47.502;18.940;2022-11-15T04:45:27;98395.81;;;6.55;82.70
65756;BME280;52489;47.502;18.940;2022-11-15T04:46:30;98389.31;;;6.57;82.78
65756;BME280;52489;47.502;18.940;2022-11-15T04:47:34;98387.72;;;6.77;82.19
65756;BME280;52489;47.502;18.940;2022-11-15T04:48:37;98382.53;;;6.92;81.61
65756;BME280;52489;47.502;18.940;2022-11-15T04:49:40;98375.00;;;6.80;81.83
65756;BME280;52489;47.502;18.940;2022-11-15T04:50:43;98373.16;;;6.76;81.90
65756;BME280;52489;47.502;18.940;2022-11-15T04:51:46;98376.56;;;6.61;82.58
65756;BME280;52489;47.502;18.940;2022-11-15T04:52:51;98370.03;;;6.58;83.03
65756;BME280;52489;47.502;18.940;2022-11-15T04:53:54;98370.03;;;6.43;83.82
65756;BME280;52489;47.502;18.940;2022-11-15T04:54:57;98370.00;;;6.33;84.21
65756;BME280;52489;47.502;18.940;2022-11-15T04:56:06;98371.84;;;6.32;84.24
65756;BME280;52489;47.502;18.940;2022-11-15T04:57:09;98373.94;;;6.41;82.90
65756;BME280;52489;47.502;18.940;2022-11-15T04:58:12;98377.06;;;6.43;82.36
65756;BME280;52489;47.502;18.940;2022-11-15T04:59:19;98381.75;;;6.56;81.78
65756;BME280;52489;47.502;18.940;2022-11-15T05:00:21;98381.22;;;6.44;82.67
65756;BME280;52489;47.502;18.940;2022-11-15T05:01:24;98374.44;;;6.32;83.02
65756;BME280;52489;47.502;18.940;2022-11-15T05:02:27;98386.44;;;6.59;82.29
65756;BME280;52489;47.502;18.940;2022-11-15T05:03:49;98380.97;;;6.71;81.70
65756;BME280;52489;47.502;18.940;2022-11-15T05:05:11;98381.22;;;6.64;82.06
65756;BME280;52489;47.502;18.940;2022-11-15T05:06:13;98388.25;;;6.43;83.07
65756;BME280;52489;47.502;18.940;2022-11-15T05:07:16;98390.56;;;6.24;83.71
65756;BME280;52489;47.502;18.940;2022-11-15T05:08:19;98391.09;;;6.42;83.28
65756;BME280;52489;47.502;18.940;2022-11-15T05:09:21;98386.97;;;6.61;82.14
65756;BME280;52489;47.502;18.940;2022-11-15T05:10:24;98391.13;;;6.67;81.48
65756;BME280;52489;47.502;18.940;2022-11-15T05:11:27;98397.91;;;6.63;81.49
65756;BME280;52489;47.502;18.940;2022-11-15T05:12:29;98396.84;;;6.49;81.67
65756;BME280;52489;47.502;18.940;2022-11-15T05:13:32;98397.88;;;6.37;82.03
65756;BME280;52489;47.502;18.940;2022-11-15T05:14:35;98400.97;;;6.24;82.50
65756;BME280;52489;47.502;18.940;2022-11-15T05:15:38;98400.47;;;6.27;82.31
65756;BME280;52489;47.502;18.940;2022-11-15T05:16:41;98392.91;;;6.31;82.08
65756;BME280;52489;47.502;18.940;2022-11-15T05:17:43;98392.94;;;6.36;81.94
65756;BME280;52489;47.502;18.940;2022-11-15T05:18:52;98394.22;;;6.38;81.99
65756;BME280;52489;47.502;18.940;2022-11-15T05:19:55;98393.22;;;6.55;81.25
65756;BME280;52489;47.502;18.940;2022-11-15T05:21:06;98392.94;;;6.67;81.06
65756;BME280;52489;47.502;18.940;2022-11-15T05:22:09;98389.84;;;6.75;80.84
65756;BME280;52489;47.502;18.940;2022-11-15T05:23:11;98391.63;;;6.79;80.69
65756;BME280;52489;47.502;18.940;2022-11-15T05:24:14;98389.56;;;6.76;81.10
65756;BME280;52489;47.502;18.940;2022-11-15T05:25:17;98390.59;;;6.86;80.76
65756;BME280;52489;47.502;18.940;2022-11-15T05:26:20;98388.78;;;6.81;81.15
65756;BME280;52489;47.502;18.940;2022-11-15T05:27:23;98398.94;;;6.82;81.02
65756;BME280;52489;47.502;18.940;2022-11-15T05:28:26;98391.91;;;6.83;81.49
65756;BME280;52489;47.502;18.940;2022-11-15T05:29:30;98386.44;;;6.74;81.73
65756;BME280;52489;47.502;18.940;2022-11-15T05:30:32;98383.81;;;6.74;82.17
65756;BME280;52489;47.502;18.940;2022-11-15T05:31:39;98379.66;;;6.73;82.80
65756;BME280;52489;47.502;18.940;2022-11-15T05:32:44;98382.28;;;6.78;82.97
65756;BME280;52489;47.502;18.940;2022-11-15T05:33:49;98376.53;;;6.81;83.47
65756;BME280;52489;47.502;18.940;2022-11-15T05:34:54;98368.72;;;6.97;83.46
65756;BME280;52489;47.502;18.940;2022-11-15T05:37:24;98369.00;;;6.70;84.81
65756;BME280;52489;47.502;18.940;2022-11-15T05:38:28;98367.72;;;6.57;85.73
65756;BME280;52489;47.502;18.940;2022-11-15T05:39:31;98361.97;;;6.55;86.07
65756;BME280;52489;47.502;18.940;2022-11-15T05:40:34;98363.78;;;6.44;86.08
65756;BME280;52489;47.502;18.940;2022-11-15T05:41:40;98363.00;;;6.59;85.96
65756;BME280;52489;47.502;18.940;2022-11-15T05:42:44;98357.56;;;6.66;85.92
65756;BME280;52489;47.502;18.940;2022-11-15T05:43:48;98358.31;;;6.46;86.84
65756;BME280;52489;47.502;18.940;2022-11-15T05:44:52;98355.97;;;6.44;86.83
65756;BME280;52489;47.502;18.940;2022-11-15T05:45:56;98364.31;;;6.51;86.27
65756;BME280;52489;47.502;18.940;2022-11-15T05:46:59;98358.56;;;6.44;87.22
65756;BME280;52489;47.502;18.940;2022-11-15T05:48:06;98360.13;;;6.50;86.96
65756;BME280;52489;47.502;18.940;2022-11-15T05:49:14;98365.06;;;6.42;87.43
65756;BME280;52489;47.502;18.940;2022-11-15T05:50:18;98363.00;;;6.44;86.92
65756;BME280;52489;47.502;18.940;2022-11-15T05:51:22;98365.34;;;6.45;87.08
65756;BME280;52489;47.502;18.940;2022-11-15T05:52:27;98364.59;;;6.60;86.22
65756;BME280;52489;47.502;18.940;2022-11-15T05:53:31;98356.25;;;6.58;86.27
65756;BME280;52489;47.502;18.940;2022-11-15T05:54:36;98364.81;;;6.53;86.25
65756;BME280;52489;47.502;18.940;2022-11-15T05:55:41;98364.03;;;6.68;85.80
65756;BME280;52489;47.502;18.940;2022-11-15T05:56:44;98363.00;;;6.79;84.96
65756;BME280;52489;47.502;18.940;2022-11-15T05:57:47;98364.59;;;6.80;84.97
65756;BME280;52489;47.502;18.940;2022-11-15T05:58:52;98368.19;;;7.00;84.12
65756;BME280;52489;47.502;18.940;2022-11-15T06:00:03;98364.28;;;7.02;83.89
65756;BME280;52489;47.502;18.940;2022-11-15T06:01:06;98366.34;;;7.00;83.91
65756;BME280;52489;47.502;18.940;2022-11-15T06:02:09;98362.44;;;7.03;83.77
65756;BME280;52489;47.502;18.940;2022-11-15T06:03:12;98359.31;;;7.11;83.67
65756;BME280;52489;47.502;18.940;2022-11-15T06:04:16;98367.91;;;7.12;83.69
65756;BME280;52489;47.502;18.940;2022-11-15T06:05:19;98370.22;;;7.18;83.54
65756;BME280;52489;47.502;18.940;2022-11-15T06:06:21;98364.00;;;7.19;83.44
65756;BME280;52489;47.502;18.940;2022-11-15T06:07:24;98367.38;;;7.15;83.36
65756;BME280;52489;47.502;18.940;2022-11-15T06:08:28;98370.50;;;7.17;83.47
65756;BME280;52489;47.502;18.940;2022-11-15T06:09:30;98367.88;;;7.27;83.30
65756;BME280;52489;47.502;18.940;2022-11-15T06:10:33;98366.59;;;7.19;83.56
65756;BME280;52489;47.502;18.940;2022-11-15T06:11:36;98364.50;;;7.21;83.28
65756;BME280;52489;47.502;18.940;2022-11-15T06:12:38;98358.50;;;7.31;83.00
65756;BME280;52489;47.502;18.940;2022-11-15T06:13:41;98357.72;;;7.31;83.45
65756;BME280;52489;47.502;18.940;2022-11-15T06:14:44;98354.06;;;7.37;82.88
65756;BME280;52489;47.502;18.940;2022-11-15T06:15:46;98351.97;;;7.34;83.09
65756;BME280;52489;47.502;18.940;2022-11-15T06:16:49;98354.59;;;7.28;83.44
65756;BME280;52489;47.502;18.940;2022-11-15T06:17:52;98346.00;;;7.28;83.61
65756;BME280;52489;47.502;18.940;2022-11-15T06:18:55;98351.16;;;7.33;83.94
65756;BME280;52489;47.502;18.940;2022-11-15T06:19:57;98352.00;;;7.23;84.62
65756;BME280;52489;47.502;18.940;2022-11-15T06:21:00;98355.91;;;7.21;84.61
65756;BME280;52489;47.502;18.940;2022-11-15T06:22:03;98352.75;;;7.34;84.03
65756;BME280;52489;47.502;18.940;2022-11-15T06:23:06;98353.78;;;7.33;84.34
65756;BME280;52489;47.502;18.940;2022-11-15T06:24:09;98357.69;;;7.36;84.44
65756;BME280;52489;47.502;18.940;2022-11-15T06:25:12;98358.97;;;7.38;84.28